Vancourt, Texas
Current Conditions -  °F | °C
As of 5:51 AM on Monday 24 Nov 2014 (Local Time) from KSJT Reporting Station
Clear Clear  
Wind Chill:   Ceiling: Unl
Heat Index:   Visibility: 10mi
Dew Point: -1°   Wind: 7mph
Humidity: 76%   Direction: 260°W
Pressure: 30.03"   Gusts: NA
Location:  31.34°N, 100.18°W
Report Text: KSJT 241151Z AUTO 26006KT 10SM CLR 03/M01 A3003 RMK AO2 SLP165 T00331006 10083 20033 51006
Loading
Personal Weather Stations






























Interactive Weather Map New forecast layout! Learn more

10-Day Weather Forecast

Advertisements
Track Severe Weather on mobile